createdAt,value
2023-09-02T00:01:00.782Z,18.20
2023-09-02T00:03:48.192Z,18.10
2023-09-02T00:06:35.606Z,18.10
2023-09-02T00:09:22.924Z,18.10
2023-09-02T00:12:10.248Z,18.10
2023-09-02T00:14:57.534Z,18.00
2023-09-02T00:17:45.509Z,18.00
2023-09-02T00:20:32.833Z,18.00
2023-09-02T00:23:20.234Z,17.90
2023-09-02T00:26:07.553Z,17.80
2023-09-02T00:28:54.765Z,17.80
2023-09-02T00:31:42.039Z,17.80
2023-09-02T00:34:29.262Z,17.90
2023-09-02T00:37:16.678Z,17.80
2023-09-02T00:40:05.095Z,17.70
2023-09-02T00:42:55.112Z,17.70
2023-09-02T00:45:44.503Z,17.70
2023-09-02T00:48:31.883Z,17.70
2023-09-02T00:51:19.143Z,17.70
2023-09-02T00:54:06.613Z,17.70
2023-09-02T00:56:53.829Z,17.60
2023-09-02T00:59:41.099Z,17.60
2023-09-02T01:02:28.505Z,17.60
2023-09-02T01:05:16.985Z,17.60
2023-09-02T01:08:07.174Z,17.60
2023-09-02T01:10:55.186Z,17.60
2023-09-02T01:13:42.432Z,17.60
2023-09-02T01:16:30.333Z,17.50
2023-09-02T01:19:19.520Z,17.60
2023-09-02T01:22:15.698Z,17.60
2023-09-02T01:25:21.381Z,17.60
2023-09-02T01:28:19.781Z,17.50
2023-09-02T01:31:09.937Z,17.60
2023-09-02T01:33:59.109Z,17.60
2023-09-02T01:36:47.675Z,17.50
2023-09-02T01:39:36.612Z,17.50
2023-09-02T01:42:24.651Z,17.50
2023-09-02T01:45:13.470Z,17.50
2023-09-02T01:48:01.243Z,17.40
2023-09-02T01:50:49.614Z,17.40
2023-09-02T01:53:37.094Z,17.40
2023-09-02T01:56:24.443Z,17.30
2023-09-02T01:59:11.654Z,17.30
2023-09-02T02:01:59.005Z,17.30
2023-09-02T02:04:52.713Z,17.30
2023-09-02T02:07:43.112Z,17.30
2023-09-02T02:10:33.911Z,17.30
2023-09-02T02:13:21.411Z,17.20
2023-09-02T02:16:08.660Z,17.20
2023-09-02T02:18:56.393Z,17.20
2023-09-02T02:21:43.602Z,17.10
2023-09-02T02:24:30.885Z,17.00
2023-09-02T02:27:18.225Z,17.00
2023-09-02T02:30:06.066Z,17.00
2023-09-02T02:32:53.333Z,16.90
2023-09-02T02:35:40.728Z,16.90
2023-09-02T02:38:28.031Z,16.90
2023-09-02T02:41:15.272Z,16.90
2023-09-02T02:44:03.709Z,16.90
2023-09-02T02:46:50.999Z,16.80
2023-09-02T02:49:38.227Z,16.80
2023-09-02T02:52:25.460Z,16.80
2023-09-02T02:55:13.383Z,16.80
2023-09-02T02:58:00.826Z,16.80
2023-09-02T03:00:48.182Z,16.80
2023-09-02T03:03:36.945Z,16.70
2023-09-02T03:06:24.313Z,16.60
2023-09-02T03:09:11.555Z,16.60
2023-09-02T03:11:58.983Z,16.50
2023-09-02T03:14:49.270Z,16.60
2023-09-02T03:17:36.524Z,16.60
2023-09-02T03:20:23.948Z,16.60
2023-09-02T03:23:11.204Z,16.60
2023-09-02T03:26:06.911Z,16.50
2023-09-02T03:28:55.040Z,16.50
2023-09-02T03:31:42.312Z,16.50
2023-09-02T03:34:29.518Z,16.50
2023-09-02T03:37:16.777Z,16.40
2023-09-02T03:40:05.000Z,16.40
2023-09-02T03:42:52.217Z,16.40
2023-09-02T03:45:39.438Z,16.40
2023-09-02T03:48:27.021Z,16.40
2023-09-02T03:51:17.146Z,16.40
2023-09-02T03:54:05.396Z,16.40
2023-09-02T03:56:52.621Z,16.40
2023-09-02T03:59:39.868Z,16.30
2023-09-02T04:02:27.152Z,16.10
2023-09-02T04:05:14.509Z,16.20
2023-09-02T04:08:01.717Z,16.20
2023-09-02T04:10:55.868Z,16.30
2023-09-02T04:13:43.291Z,16.20
2023-09-02T04:16:30.723Z,16.30
2023-09-02T04:19:19.062Z,16.20
2023-09-02T04:22:06.338Z,16.30
2023-09-02T04:24:53.634Z,16.30
2023-09-02T04:27:40.889Z,16.30
2023-09-02T04:30:28.138Z,16.30
2023-09-02T04:33:17.813Z,16.30
2023-09-02T04:36:05.936Z,16.30
2023-09-02T04:38:53.294Z,16.40
2023-09-02T04:41:40.561Z,16.40
2023-09-02T04:44:27.785Z,16.40
2023-09-02T04:47:14.993Z,16.50
2023-09-02T04:50:03.626Z,16.60
2023-09-02T04:52:51.901Z,16.60
2023-09-02T04:55:40.221Z,16.60
2023-09-02T04:58:28.510Z,16.70
2023-09-02T05:01:16.835Z,16.80
2023-09-02T05:04:04.339Z,16.90
2023-09-02T05:06:51.573Z,17.00
2023-09-02T05:09:39.329Z,17.00
2023-09-02T05:12:26.638Z,17.10
2023-09-02T05:15:13.915Z,17.20
2023-09-02T05:18:01.283Z,17.20
2023-09-02T05:20:48.921Z,17.40
2023-09-02T05:23:36.242Z,17.50
2023-09-02T05:26:23.514Z,17.50
2023-09-02T05:29:10.830Z,17.60
2023-09-02T05:31:58.118Z,17.80
2023-09-02T05:34:45.721Z,17.80
2023-09-02T05:37:32.951Z,18.00
2023-09-02T05:40:20.198Z,18.10
2023-09-02T05:43:07.456Z,18.20
2023-09-02T05:45:54.758Z,18.20
2023-09-02T05:48:41.996Z,18.40
2023-09-02T05:51:30.066Z,18.50
2023-09-02T05:54:17.318Z,18.60
2023-09-02T05:57:04.922Z,18.60
2023-09-02T05:59:52.470Z,18.60
2023-09-02T06:02:39.740Z,18.80
2023-09-02T06:05:27.011Z,19.00
2023-09-02T06:08:14.359Z,19.20
2023-09-02T06:11:01.937Z,19.30
2023-09-02T06:13:49.190Z,19.40
2023-09-02T06:16:36.910Z,19.50
2023-09-02T06:19:24.254Z,19.60
2023-09-02T06:22:12.580Z,19.70
2023-09-02T06:25:00.686Z,19.70
2023-09-02T06:27:48.260Z,19.80
2023-09-02T06:30:38.998Z,20.00
2023-09-02T06:33:26.435Z,20.00
2023-09-02T06:36:16.025Z,20.20
2023-09-02T06:39:03.821Z,20.30
2023-09-02T06:41:53.566Z,20.40
2023-09-02T06:44:41.427Z,20.50
2023-09-02T06:47:28.861Z,20.50
2023-09-02T06:50:16.196Z,20.60
2023-09-02T06:53:03.616Z,20.60
2023-09-02T06:55:50.814Z,20.70
2023-09-02T06:58:43.020Z,20.90
2023-09-02T07:01:30.307Z,21.00
2023-09-02T07:04:17.590Z,21.10
2023-09-02T07:07:04.925Z,21.20
2023-09-02T07:09:52.743Z,21.30
2023-09-02T07:12:40.105Z,21.40
2023-09-02T07:15:27.359Z,21.50
2023-09-02T07:18:14.596Z,21.60
2023-09-02T07:21:03.641Z,21.70
2023-09-02T07:23:53.821Z,21.80
2023-09-02T07:26:42.436Z,21.80
2023-09-02T07:29:29.823Z,21.90
2023-09-02T07:32:17.068Z,22.10
2023-09-02T07:35:04.534Z,22.10
2023-09-02T07:37:51.883Z,22.20
2023-09-02T07:40:39.195Z,22.30
2023-09-02T07:43:26.401Z,22.40
2023-09-02T07:46:13.684Z,22.40
2023-09-02T07:49:00.986Z,22.50
2023-09-02T07:51:48.232Z,22.60
2023-09-02T07:54:35.475Z,22.60
2023-09-02T07:57:22.680Z,22.70
2023-09-02T08:00:10.215Z,22.80
2023-09-02T08:02:58.644Z,22.90
2023-09-02T08:05:46.162Z,23.00
2023-09-02T08:08:33.694Z,23.10
2023-09-02T08:11:21.028Z,23.20
2023-09-02T08:14:08.293Z,23.30
2023-09-02T08:16:55.551Z,23.30
2023-09-02T08:19:42.772Z,23.40
2023-09-02T08:22:30.130Z,23.60
2023-09-02T08:25:17.409Z,23.70
2023-09-02T08:28:05.019Z,23.90
2023-09-02T08:30:52.309Z,24.00
2023-09-02T08:33:40.043Z,24.20
2023-09-02T08:36:29.175Z,24.40
2023-09-02T08:39:18.158Z,24.60
2023-09-02T08:42:06.452Z,24.80
2023-09-02T08:44:56.549Z,24.90
2023-09-02T08:47:48.549Z,25.10
2023-09-02T08:50:37.094Z,25.10
2023-09-02T08:53:26.401Z,25.10
2023-09-02T08:56:13.943Z,25.40
2023-09-02T08:59:01.177Z,25.50
2023-09-02T09:01:49.077Z,25.60
2023-09-02T09:04:37.537Z,25.60
2023-09-02T09:07:27.252Z,25.70
2023-09-02T09:10:17.240Z,25.90
2023-09-02T09:13:08.504Z,26.00
2023-09-02T09:15:59.141Z,26.00
2023-09-02T09:18:46.763Z,26.30
2023-09-02T09:21:33.995Z,26.40
2023-09-02T09:24:21.334Z,26.50
2023-09-02T09:27:10.541Z,26.50
2023-09-02T09:29:57.780Z,26.60
2023-09-02T09:32:59.145Z,26.80
2023-09-02T09:35:46.430Z,26.90
2023-09-02T09:38:39.934Z,27.00
2023-09-02T09:41:28.173Z,27.10
2023-09-02T09:44:17.454Z,27.20
2023-09-02T09:47:09.443Z,27.30
2023-09-02T09:50:15.561Z,27.50
2023-09-02T09:53:05.988Z,27.60
2023-09-02T09:55:53.254Z,27.70
2023-09-02T09:58:40.590Z,27.80
2023-09-02T10:01:28.250Z,27.90
2023-09-02T10:04:15.726Z,28.00
2023-09-02T10:07:07.200Z,28.10
2023-09-02T10:09:56.729Z,28.00
2023-09-02T10:12:54.593Z,28.30
2023-09-02T10:15:43.336Z,28.50
2023-09-02T10:18:30.769Z,28.60
2023-09-02T10:21:20.423Z,28.60
2023-09-02T10:24:13.743Z,28.70
2023-09-02T10:27:06.843Z,28.90
2023-09-02T10:29:59.502Z,29.10
2023-09-02T10:33:00.686Z,29.30
2023-09-02T10:35:58.251Z,29.80
2023-09-02T10:38:49.688Z,30.20
2023-09-02T10:41:39.272Z,30.70
2023-09-02T10:44:27.537Z,31.20
2023-09-02T10:47:15.134Z,31.80
2023-09-02T10:50:04.196Z,32.40
2023-09-02T10:53:04.159Z,33.10
2023-09-02T10:56:01.721Z,33.80
2023-09-02T10:58:49.298Z,34.70
2023-09-02T11:01:50.203Z,35.00
2023-09-02T11:04:58.605Z,36.20
2023-09-02T11:07:46.286Z,37.10
2023-09-02T11:10:53.156Z,38.00
2023-09-02T11:14:10.180Z,38.70
2023-09-02T11:17:29.601Z,39.30
2023-09-02T11:20:26.844Z,39.40
2023-09-02T11:23:22.512Z,39.80
2023-09-02T11:26:13.618Z,40.40
2023-09-02T11:29:27.484Z,40.60
2023-09-02T11:32:14.748Z,40.40
2023-09-02T11:35:07.140Z,40.90
2023-09-02T11:37:54.673Z,41.30
2023-09-02T11:40:41.869Z,42.60
2023-09-02T11:43:31.623Z,42.80
2023-09-02T11:46:19.088Z,43.70
2023-09-02T11:49:30.339Z,44.00
2023-09-02T11:52:24.474Z,43.90
2023-09-02T11:55:16.904Z,44.40
2023-09-02T11:58:09.425Z,45.40
2023-09-02T12:00:56.838Z,44.90
2023-09-02T12:03:44.654Z,45.20
2023-09-02T12:06:32.982Z,46.10
2023-09-02T12:09:20.253Z,46.60
2023-09-02T12:12:08.423Z,45.00
2023-09-02T12:14:58.163Z,46.00
2023-09-02T12:17:46.765Z,47.50
2023-09-02T12:20:34.514Z,47.80
2023-09-02T12:23:22.216Z,47.00
2023-09-02T12:26:11.172Z,47.40
2023-09-02T12:29:06.419Z,47.40
2023-09-02T12:32:02.151Z,47.90
2023-09-02T12:34:49.470Z,47.90
2023-09-02T12:37:37.326Z,48.10
2023-09-02T12:40:24.637Z,48.70
2023-09-02T12:43:11.906Z,49.40
2023-09-02T12:45:59.407Z,49.30
2023-09-02T12:48:47.862Z,48.90
2023-09-02T12:51:39.173Z,49.20
2023-09-02T12:54:31.065Z,48.70
2023-09-02T12:57:18.318Z,47.90
2023-09-02T13:00:08.992Z,48.70
2023-09-02T13:02:57.683Z,49.40
2023-09-02T13:05:44.969Z,48.40
2023-09-02T13:08:32.683Z,49.10
2023-09-02T13:11:20.009Z,49.60
2023-09-02T13:14:07.285Z,48.90
2023-09-02T13:16:54.621Z,49.20
2023-09-02T13:19:42.080Z,48.50
2023-09-02T13:22:29.416Z,48.60
2023-09-02T13:25:17.690Z,48.30
2023-09-02T13:28:06.502Z,48.50
2023-09-02T13:30:53.779Z,48.70
2023-09-02T13:33:46.412Z,49.10
2023-09-02T13:36:34.838Z,48.60
2023-09-02T13:39:22.057Z,48.70
2023-09-02T13:42:16.319Z,48.00
2023-09-02T13:45:31.237Z,48.40
2023-09-02T13:48:19.470Z,48.20
2023-09-02T13:51:07.006Z,48.30
2023-09-02T13:53:55.608Z,49.30
2023-09-02T13:56:44.122Z,48.70
2023-09-02T13:59:32.839Z,48.70
2023-09-02T14:02:23.443Z,49.10
2023-09-02T14:05:18.811Z,48.80
2023-09-02T14:08:06.975Z,49.30
2023-09-02T14:10:54.313Z,48.30
2023-09-02T14:13:42.113Z,48.10
2023-09-02T14:16:32.501Z,47.70
2023-09-02T14:19:19.909Z,48.10
2023-09-02T14:22:07.325Z,48.00
2023-09-02T14:24:54.531Z,47.20
2023-09-02T14:27:42.876Z,48.20
2023-09-02T14:30:30.242Z,48.00
2023-09-02T14:33:17.906Z,47.30
2023-09-02T14:36:07.710Z,47.00
2023-09-02T14:38:54.989Z,47.80
2023-09-02T14:41:42.210Z,48.40
2023-09-02T14:44:30.895Z,47.40
2023-09-02T14:47:18.155Z,47.50
2023-09-02T14:50:06.154Z,47.70
2023-09-02T14:52:53.527Z,46.90
2023-09-02T14:55:43.931Z,46.10
2023-09-02T14:58:33.285Z,47.00
2023-09-02T15:01:20.643Z,47.20
2023-09-02T15:04:10.220Z,46.50
2023-09-02T15:06:57.611Z,46.60
2023-09-02T15:09:47.025Z,47.30
2023-09-02T15:12:34.946Z,47.00
2023-09-02T15:15:25.477Z,47.30
2023-09-02T15:18:26.709Z,47.00
2023-09-02T15:21:18.107Z,46.20
2023-09-02T15:24:07.820Z,46.60
2023-09-02T15:26:55.233Z,47.30
2023-09-02T15:29:43.201Z,46.10
2023-09-02T15:32:30.484Z,46.00
2023-09-02T15:35:17.873Z,46.30
2023-09-02T15:38:13.194Z,46.50
2023-09-02T15:41:03.403Z,45.90
2023-09-02T15:43:54.103Z,46.60
2023-09-02T15:46:41.541Z,45.80
2023-09-02T15:49:28.773Z,46.00
2023-09-02T15:52:16.017Z,45.90
2023-09-02T15:55:03.299Z,45.10
2023-09-02T15:57:56.106Z,44.30
2023-09-02T16:00:43.334Z,45.10
2023-09-02T16:03:30.864Z,45.00
2023-09-02T16:06:18.237Z,44.70
2023-09-02T16:09:05.607Z,45.00
2023-09-02T16:11:53.914Z,44.30
2023-09-02T16:14:41.188Z,44.60
2023-09-02T16:17:31.766Z,44.60
2023-09-02T16:20:19.110Z,44.40
2023-09-02T16:23:06.405Z,43.80
2023-09-02T16:25:53.680Z,44.60
2023-09-02T16:28:42.676Z,44.80
2023-09-02T16:31:30.035Z,44.60
2023-09-02T16:34:17.485Z,44.10
2023-09-02T16:37:04.990Z,43.00
2023-09-02T16:39:56.696Z,42.50
2023-09-02T16:42:44.887Z,42.00
2023-09-02T16:45:32.363Z,41.50
2023-09-02T16:48:21.762Z,41.40
2023-09-02T16:51:12.761Z,41.10
2023-09-02T16:54:02.402Z,40.90
2023-09-02T16:56:49.685Z,40.50
2023-09-02T16:59:37.014Z,39.80
2023-09-02T17:02:34.993Z,39.30
2023-09-02T17:05:24.259Z,38.80
2023-09-02T17:08:22.053Z,38.10
2023-09-02T17:11:09.315Z,37.20
2023-09-02T17:13:58.140Z,35.80
2023-09-02T17:16:49.588Z,34.60
2023-09-02T17:19:36.967Z,33.40
2023-09-02T17:22:24.240Z,32.70
2023-09-02T17:25:11.447Z,31.90
2023-09-02T17:27:59.974Z,31.30
2023-09-02T17:30:48.858Z,30.50
2023-09-02T17:33:40.875Z,29.80
2023-09-02T17:36:28.125Z,29.10
2023-09-02T17:39:15.426Z,28.70
2023-09-02T17:42:02.657Z,28.30
2023-09-02T17:44:50.442Z,28.00
2023-09-02T17:47:39.332Z,27.80
2023-09-02T17:50:26.595Z,27.60
2023-09-02T17:53:19.677Z,27.30
2023-09-02T17:56:07.016Z,27.10
2023-09-02T17:58:54.260Z,26.90
2023-09-02T18:01:42.183Z,26.80
2023-09-02T18:04:29.933Z,26.70
2023-09-02T18:07:17.462Z,26.50
2023-09-02T18:10:11.957Z,26.30
2023-09-02T18:12:59.373Z,26.20
2023-09-02T18:15:47.180Z,26.10
2023-09-02T18:18:35.105Z,26.10
2023-09-02T18:21:22.357Z,25.90
2023-09-02T18:24:11.133Z,25.70
2023-09-02T18:26:58.401Z,25.50
2023-09-02T18:29:45.637Z,25.40
2023-09-02T18:32:33.864Z,25.20
2023-09-02T18:35:23.548Z,25.10
2023-09-02T18:38:10.807Z,25.00
2023-09-02T18:40:58.068Z,24.90
2023-09-02T18:43:45.270Z,24.80
2023-09-02T18:46:32.704Z,24.70
2023-09-02T18:49:20.004Z,24.70
2023-09-02T18:52:07.404Z,24.60
2023-09-02T18:54:54.720Z,24.50
2023-09-02T18:57:42.012Z,24.50
2023-09-02T19:00:30.436Z,24.40
2023-09-02T19:03:18.305Z,24.20
2023-09-02T19:06:05.878Z,24.20
2023-09-02T19:08:53.119Z,24.10
2023-09-02T19:11:40.775Z,24.00
2023-09-02T19:14:28.295Z,23.80
2023-09-02T19:17:16.366Z,23.70
2023-09-02T19:20:07.520Z,23.60
2023-09-02T19:22:54.797Z,23.70
2023-09-02T19:25:42.148Z,23.60
2023-09-02T19:28:30.596Z,23.60
2023-09-02T19:31:17.933Z,23.50
2023-09-02T19:34:05.203Z,23.40
2023-09-02T19:36:52.466Z,23.30
2023-09-02T19:39:39.685Z,23.20
2023-09-02T19:42:26.919Z,23.10
2023-09-02T19:45:14.196Z,23.00
2023-09-02T19:48:01.544Z,22.90
2023-09-02T19:50:51.044Z,22.80
2023-09-02T19:53:39.655Z,22.70
2023-09-02T19:56:27.012Z,22.70
2023-09-02T19:59:14.265Z,22.60
2023-09-02T20:02:01.572Z,22.50
2023-09-02T20:04:53.911Z,22.40
2023-09-02T20:07:41.147Z,22.30
2023-09-02T20:10:28.387Z,22.30
2023-09-02T20:13:15.578Z,22.30
2023-09-02T20:16:06.416Z,22.20
2023-09-02T20:18:53.713Z,22.10
2023-09-02T20:21:40.964Z,22.10
2023-09-02T20:24:32.692Z,22.00
2023-09-02T20:27:20.132Z,21.90
2023-09-02T20:30:08.047Z,21.90
2023-09-02T20:32:55.354Z,21.90
2023-09-02T20:35:42.639Z,21.90
2023-09-02T20:38:29.893Z,21.80
2023-09-02T20:41:18.928Z,21.80
2023-09-02T20:44:11.043Z,21.70
2023-09-02T20:46:58.314Z,21.70
2023-09-02T20:49:46.657Z,21.50
2023-09-02T20:52:33.988Z,21.60
2023-09-02T20:55:21.205Z,21.60
2023-09-02T20:58:08.423Z,21.60
2023-09-02T21:00:55.647Z,21.50
2023-09-02T21:03:43.011Z,21.50
2023-09-02T21:06:30.362Z,21.40
2023-09-02T21:09:17.616Z,21.40
2023-09-02T21:12:05.226Z,21.20
2023-09-02T21:14:54.043Z,21.10
2023-09-02T21:17:41.441Z,21.00
2023-09-02T21:20:28.730Z,21.00
2023-09-02T21:23:16.163Z,21.10
2023-09-02T21:26:08.334Z,21.00
2023-09-02T21:28:55.650Z,21.00
2023-09-02T21:31:42.859Z,21.00
2023-09-02T21:34:30.095Z,21.00
2023-09-02T21:37:17.334Z,21.00
2023-09-02T21:40:08.483Z,20.90
2023-09-02T21:42:55.746Z,20.80
2023-09-02T21:45:42.995Z,20.70
2023-09-02T21:48:30.554Z,20.70
2023-09-02T21:51:18.453Z,20.60
2023-09-02T21:54:05.812Z,20.60
2023-09-02T21:56:53.208Z,20.60
2023-09-02T21:59:40.417Z,20.50
2023-09-02T22:02:30.381Z,20.50
2023-09-02T22:05:17.824Z,20.50
2023-09-02T22:08:05.430Z,20.50
2023-09-02T22:10:53.386Z,20.50
2023-09-02T22:13:41.951Z,20.50
2023-09-02T22:16:29.511Z,20.40
2023-09-02T22:19:16.787Z,20.40
2023-09-02T22:22:04.058Z,20.30
2023-09-02T22:24:52.678Z,20.30
2023-09-02T22:27:40.961Z,20.30
2023-09-02T22:30:28.201Z,20.40
2023-09-02T22:33:15.484Z,20.40
2023-09-02T22:36:03.471Z,20.30
2023-09-02T22:38:55.755Z,20.30
2023-09-02T22:41:50.956Z,20.30
2023-09-02T22:44:38.177Z,20.20
2023-09-02T22:47:25.429Z,20.10
2023-09-02T22:50:12.809Z,20.00
2023-09-02T22:53:00.304Z,20.00
2023-09-02T22:55:47.594Z,20.00
2023-09-02T22:58:34.813Z,19.90
2023-09-02T23:01:22.166Z,19.70
2023-09-02T23:04:09.432Z,19.70
2023-09-02T23:06:56.723Z,19.60
2023-09-02T23:09:43.932Z,19.60
2023-09-02T23:12:31.178Z,19.60
2023-09-02T23:15:22.849Z,19.50
2023-09-02T23:18:11.403Z,19.50
2023-09-02T23:21:09.428Z,19.40
2023-09-02T23:23:56.735Z,19.40
2023-09-02T23:26:43.940Z,19.40
2023-09-02T23:29:32.057Z,19.40
2023-09-02T23:32:19.237Z,19.40
2023-09-02T23:35:07.769Z,19.40
2023-09-02T23:37:55.025Z,19.30
2023-09-02T23:40:42.282Z,19.20
2023-09-02T23:43:30.998Z,19.10
2023-09-02T23:46:20.092Z,19.10
2023-09-02T23:49:07.412Z,19.00
2023-09-02T23:51:54.724Z,19.00
2023-09-02T23:54:41.914Z,19.10
2023-09-02T23:57:29.185Z,19.10
